createdAt,value
2022-12-11T00:01:59.362Z,52.97
2022-12-11T00:04:25.667Z,44.33
2022-12-11T00:06:52.261Z,52.28
2022-12-11T00:09:19.284Z,44.85
2022-12-11T00:11:45.577Z,44.47
2022-12-11T00:14:12.342Z,36.97
2022-12-11T00:19:04.832Z,40.95
2022-12-11T00:21:31.138Z,36.65
2022-12-11T00:23:57.411Z,69.07
2022-12-11T00:26:23.678Z,56.30
2022-12-11T00:28:52.999Z,45.15
2022-12-11T00:31:20.105Z,57.70
2022-12-11T00:33:49.016Z,54.17
2022-12-11T00:36:16.946Z,49.65
2022-12-11T00:38:43.639Z,47.85
2022-12-11T00:41:10.077Z,43.00
2022-12-11T00:43:36.309Z,42.63
2022-12-11T00:46:02.865Z,34.22
2022-12-11T00:48:29.279Z,34.28
2022-12-11T00:50:55.479Z,42.35
2022-12-11T00:53:21.779Z,36.95
2022-12-11T00:55:48.051Z,41.40
2022-12-11T00:58:14.609Z,38.35
2022-12-11T01:00:41.186Z,36.03
2022-12-11T01:03:07.930Z,32.38
2022-12-11T01:05:34.484Z,32.65
2022-12-11T01:08:00.843Z,32.10
2022-12-11T01:10:27.327Z,32.58
2022-12-11T01:12:55.266Z,39.15
2022-12-11T01:15:22.995Z,39.67
2022-12-11T01:17:49.992Z,31.63
2022-12-11T01:20:16.335Z,37.88
2022-12-11T01:22:42.606Z,40.05
2022-12-11T01:25:10.402Z,47.65
2022-12-11T01:27:37.463Z,46.40
2022-12-11T01:30:07.841Z,42.05
2022-12-11T01:32:35.096Z,40.33
2022-12-11T01:35:02.862Z,42.50
2022-12-11T01:37:29.062Z,38.60
2022-12-11T01:39:55.292Z,37.13
2022-12-11T01:42:21.556Z,41.40
2022-12-11T01:44:47.810Z,40.05
2022-12-11T01:47:14.022Z,43.03
2022-12-11T01:49:41.408Z,35.55
2022-12-11T01:52:10.090Z,36.85
2022-12-11T01:54:36.408Z,34.33
2022-12-11T01:57:05.443Z,34.90
2022-12-11T01:59:33.998Z,37.63
2022-12-11T02:02:06.159Z,33.50
2022-12-11T02:04:33.941Z,30.60
2022-12-11T02:07:00.232Z,25.52
2022-12-11T02:09:32.072Z,30.55
2022-12-11T02:12:03.374Z,26.95
2022-12-11T02:14:32.727Z,26.10
2022-12-11T02:17:06.435Z,30.88
2022-12-11T02:19:32.694Z,24.67
2022-12-11T02:22:02.588Z,25.88
2022-12-11T02:24:31.547Z,30.45
2022-12-11T02:27:06.024Z,29.88
2022-12-11T02:29:37.382Z,33.70
2022-12-11T02:32:13.462Z,29.38
2022-12-11T02:34:54.102Z,31.27
2022-12-11T02:37:22.008Z,27.55
2022-12-11T02:39:49.508Z,24.90
2022-12-11T02:42:16.472Z,26.58
2022-12-11T02:44:43.802Z,31.83
2022-12-11T02:47:12.246Z,32.42
2022-12-11T02:49:40.123Z,31.35
2022-12-11T02:52:07.006Z,32.50
2022-12-11T02:54:36.259Z,32.45
2022-12-11T02:57:09.720Z,36.53
2022-12-11T02:59:38.347Z,34.53
2022-12-11T03:02:05.449Z,33.22
2022-12-11T03:04:32.046Z,32.47
2022-12-11T03:07:02.327Z,32.67
2022-12-11T03:09:28.592Z,32.25
2022-12-11T03:11:54.846Z,30.48
2022-12-11T03:14:21.060Z,32.10
2022-12-11T03:16:51.438Z,28.77
2022-12-11T03:19:39.592Z,39.15
2022-12-11T03:22:10.704Z,29.58
2022-12-11T03:24:39.815Z,35.88
2022-12-11T03:27:11.336Z,34.28
2022-12-11T03:29:39.644Z,33.10
2022-12-11T03:32:08.832Z,35.25
2022-12-11T03:34:41.252Z,31.30
2022-12-11T03:37:08.528Z,34.13
2022-12-11T03:39:39.503Z,36.22
2022-12-11T03:42:07.795Z,37.85
2022-12-11T03:44:35.316Z,34.28
2022-12-11T03:47:03.231Z,30.05
2022-12-11T03:49:31.762Z,34.30
2022-12-11T03:51:59.700Z,37.08
2022-12-11T03:54:26.011Z,37.00
2022-12-11T03:56:54.370Z,34.30
2022-12-11T03:59:20.642Z,38.00
2022-12-11T04:01:46.950Z,38.38
2022-12-11T04:04:13.302Z,41.25
2022-12-11T04:06:39.571Z,38.00
2022-12-11T04:09:05.810Z,34.40
2022-12-11T04:11:35.006Z,44.83
2022-12-11T04:14:23.651Z,43.60
2022-12-11T04:16:49.994Z,43.50
2022-12-11T04:19:34.664Z,43.47
2022-12-11T04:22:19.431Z,43.45
2022-12-11T04:24:47.307Z,38.08
2022-12-11T04:27:13.539Z,41.40
2022-12-11T04:29:39.745Z,41.25
2022-12-11T04:32:06.049Z,47.33
2022-12-11T04:34:32.259Z,41.92
2022-12-11T04:36:58.515Z,42.88
2022-12-11T04:39:24.731Z,47.65
2022-12-11T04:41:51.038Z,52.97
2022-12-11T04:44:17.250Z,48.00
2022-12-11T04:46:44.568Z,46.15
2022-12-11T04:49:10.838Z,44.33
2022-12-11T04:51:37.047Z,48.08
2022-12-11T04:54:03.312Z,45.95
2022-12-11T04:56:29.556Z,34.20
2022-12-11T04:58:55.753Z,46.58
2022-12-11T05:01:22.358Z,47.97
2022-12-11T05:06:15.268Z,47.25
2022-12-11T05:08:42.342Z,50.58
2022-12-11T05:11:10.182Z,49.42
2022-12-11T05:13:36.794Z,51.53
2022-12-11T05:16:04.173Z,50.40
2022-12-11T05:18:30.486Z,48.97
2022-12-11T05:21:00.802Z,49.25
2022-12-11T05:23:27.227Z,52.13
2022-12-11T05:25:54.762Z,48.40
2022-12-11T05:28:21.471Z,44.70
2022-12-11T05:33:13.887Z,57.38
2022-12-11T05:35:46.270Z,47.30
2022-12-11T05:38:12.484Z,49.28
2022-12-11T05:40:38.687Z,51.13
2022-12-11T05:43:04.915Z,54.40
2022-12-11T05:45:31.133Z,54.00
2022-12-11T05:47:57.361Z,49.95
2022-12-11T05:50:23.661Z,36.72
2022-12-11T05:52:49.899Z,49.50
2022-12-11T05:55:16.204Z,53.40
2022-12-11T05:57:42.482Z,51.75
2022-12-11T06:00:09.519Z,55.17
2022-12-11T06:02:36.116Z,50.83
2022-12-11T06:07:28.749Z,53.40
2022-12-11T06:09:55.019Z,55.03
2022-12-11T06:12:21.255Z,54.40
2022-12-11T06:14:47.491Z,59.15
2022-12-11T06:17:13.696Z,52.85
2022-12-11T06:19:39.919Z,60.47
2022-12-11T06:22:06.210Z,55.65
2022-12-11T06:24:32.561Z,59.40
2022-12-11T06:26:59.174Z,59.20
2022-12-11T06:29:25.419Z,63.60
2022-12-11T06:31:51.688Z,77.15
2022-12-11T06:34:17.961Z,70.22
2022-12-11T06:36:44.216Z,67.50
2022-12-11T06:39:10.434Z,70.53
2022-12-11T06:41:36.688Z,82.47
2022-12-11T06:44:02.916Z,69.20
2022-12-11T06:46:29.207Z,65.75
2022-12-11T06:48:55.653Z,67.13
2022-12-11T06:51:22.984Z,64.07
2022-12-11T06:53:53.351Z,69.85
2022-12-11T06:56:20.366Z,78.72
2022-12-11T06:58:46.789Z,66.65
2022-12-11T07:01:23.356Z,64.95
2022-12-11T07:03:49.891Z,74.80
2022-12-11T07:06:17.290Z,83.03
2022-12-11T07:08:43.777Z,67.28
2022-12-11T07:11:11.148Z,74.18
2022-12-11T07:13:37.388Z,67.72
2022-12-11T07:16:04.616Z,70.60
2022-12-11T07:18:38.857Z,72.63
2022-12-11T07:21:05.694Z,77.65
2022-12-11T07:23:32.125Z,70.35
2022-12-11T07:25:58.345Z,77.75
2022-12-11T07:28:24.859Z,80.40
2022-12-11T07:30:51.105Z,72.80
2022-12-11T07:33:17.427Z,74.85
2022-12-11T07:35:43.654Z,78.15
2022-12-11T07:38:09.959Z,67.25
2022-12-11T07:40:36.764Z,71.18
2022-12-11T07:45:29.629Z,65.93
2022-12-11T07:50:22.366Z,61.63
2022-12-11T07:52:48.586Z,76.45
2022-12-11T07:55:14.832Z,72.28
2022-12-11T07:57:41.109Z,69.95
2022-12-11T08:00:07.655Z,72.55
2022-12-11T08:02:37.178Z,75.45
2022-12-11T08:05:04.401Z,76.82
2022-12-11T08:07:30.642Z,71.38
2022-12-11T08:09:56.863Z,75.25
2022-12-11T08:12:23.089Z,82.53
2022-12-11T08:14:49.325Z,77.22
2022-12-11T08:17:15.540Z,76.57
2022-12-11T08:19:41.945Z,80.63
2022-12-11T08:22:08.150Z,76.72
2022-12-11T08:24:34.386Z,74.25
2022-12-11T08:27:00.755Z,93.88
2022-12-11T08:29:26.985Z,78.00
2022-12-11T08:31:53.261Z,54.47
2022-12-11T08:34:19.503Z,72.50
2022-12-11T08:36:45.716Z,65.53
2022-12-11T08:39:11.950Z,69.97
2022-12-11T08:41:38.345Z,79.50
2022-12-11T08:44:05.979Z,80.78
2022-12-11T08:46:32.801Z,71.03
2022-12-11T08:51:26.401Z,79.38
2022-12-11T08:53:55.337Z,75.72
2022-12-11T08:56:23.549Z,68.80
2022-12-11T08:58:50.018Z,71.60
2022-12-11T09:01:17.920Z,76.22
2022-12-11T09:03:44.700Z,71.72
2022-12-11T09:08:37.560Z,72.30
2022-12-11T09:13:29.935Z,59.63
2022-12-11T09:15:56.515Z,71.82
2022-12-11T09:18:22.746Z,74.20
2022-12-11T09:20:48.974Z,63.83
2022-12-11T09:23:15.187Z,59.22
2022-12-11T09:25:41.406Z,81.82
2022-12-11T09:28:07.644Z,61.90
2022-12-11T09:30:33.896Z,63.53
2022-12-11T09:33:00.204Z,63.03
2022-12-11T09:35:26.445Z,68.25
2022-12-11T09:37:52.668Z,117.80
2022-12-11T09:40:18.974Z,67.30
2022-12-11T09:42:58.756Z,64.35
2022-12-11T09:45:25.105Z,57.97
2022-12-11T09:47:54.279Z,62.53
2022-12-11T09:50:25.347Z,63.75
2022-12-11T09:52:57.666Z,60.28
2022-12-11T09:55:25.354Z,76.63
2022-12-11T09:58:03.763Z,63.92
2022-12-11T10:00:41.268Z,58.33
2022-12-11T10:03:07.464Z,55.65
2022-12-11T10:05:33.755Z,60.47
2022-12-11T10:08:06.114Z,58.05
2022-12-11T10:10:32.400Z,51.58
2022-12-11T10:13:07.354Z,70.18
2022-12-11T10:15:36.956Z,66.93
2022-12-11T10:18:06.981Z,64.75
2022-12-11T10:20:39.235Z,62.28
2022-12-11T10:23:09.960Z,56.10
2022-12-11T10:25:37.920Z,59.10
2022-12-11T10:28:30.366Z,60.17
2022-12-11T10:31:05.593Z,71.00
2022-12-11T10:33:50.592Z,74.03
2022-12-11T10:36:20.859Z,54.88
2022-12-11T10:38:47.526Z,55.38
2022-12-11T10:41:17.356Z,79.78
2022-12-11T10:43:45.969Z,49.00
2022-12-11T10:46:20.114Z,44.47
2022-12-11T10:48:47.670Z,47.50
2022-12-11T10:51:14.273Z,51.33
2022-12-11T10:53:40.612Z,48.25
2022-12-11T10:56:07.119Z,41.65
2022-12-11T10:58:38.222Z,44.00
2022-12-11T11:01:15.028Z,58.92
2022-12-11T11:04:03.356Z,50.05
2022-12-11T11:06:29.762Z,75.57
2022-12-11T11:08:57.578Z,50.03
2022-12-11T11:11:33.956Z,57.50
2022-12-11T11:14:09.808Z,50.35
2022-12-11T11:16:37.074Z,42.92
2022-12-11T11:19:03.773Z,49.13
2022-12-11T11:21:30.279Z,53.10
2022-12-11T11:23:56.751Z,49.60
2022-12-11T11:26:23.759Z,39.47
2022-12-11T11:28:54.508Z,37.28
2022-12-11T11:31:22.107Z,45.53
2022-12-11T11:33:55.672Z,60.08
2022-12-11T11:36:23.866Z,58.72
2022-12-11T11:38:58.752Z,104.97
2022-12-11T11:41:31.562Z,44.70
2022-12-11T11:43:59.603Z,43.30
2022-12-11T11:46:36.490Z,40.75
2022-12-11T11:49:17.567Z,36.95
2022-12-11T11:51:48.938Z,40.53
2022-12-11T11:54:20.699Z,44.47
2022-12-11T11:56:50.044Z,42.10
2022-12-11T11:59:31.158Z,45.25
2022-12-11T12:01:57.807Z,42.25
2022-12-11T12:04:25.348Z,44.33
2022-12-11T12:07:00.412Z,40.55
2022-12-11T12:09:32.941Z,44.35
2022-12-11T12:12:05.266Z,43.88
2022-12-11T12:14:52.335Z,45.88
2022-12-11T12:17:19.076Z,42.60
2022-12-11T12:19:57.715Z,41.58
2022-12-11T12:22:23.920Z,51.20
2022-12-11T12:25:02.880Z,42.60
2022-12-11T12:27:57.835Z,41.33
2022-12-11T12:30:24.423Z,41.45
2022-12-11T12:32:53.711Z,47.75
2022-12-11T12:35:29.436Z,47.90
2022-12-11T12:38:05.791Z,44.90
2022-12-11T12:40:34.358Z,49.33
2022-12-11T12:43:23.667Z,57.00
2022-12-11T12:46:07.908Z,51.55
2022-12-11T12:48:34.285Z,54.38
2022-12-11T12:51:00.622Z,44.47
2022-12-11T12:53:28.757Z,46.88
2022-12-11T12:55:55.483Z,46.85
2022-12-11T12:58:24.436Z,50.08
2022-12-11T13:00:50.763Z,50.72
2022-12-11T13:03:20.140Z,49.35
2022-12-11T13:06:00.709Z,56.50
2022-12-11T13:08:28.198Z,48.08
2022-12-11T13:11:02.172Z,43.95
2022-12-11T13:13:36.760Z,48.72
2022-12-11T13:16:24.774Z,47.15
2022-12-11T13:21:29.204Z,48.13
2022-12-11T13:23:56.194Z,52.50
2022-12-11T13:26:32.838Z,48.47
2022-12-11T13:28:59.225Z,50.38
2022-12-11T13:31:30.287Z,51.58
2022-12-11T13:33:57.543Z,54.15
2022-12-11T13:36:29.720Z,59.20
2022-12-11T13:39:00.568Z,54.67
2022-12-11T13:41:27.517Z,56.28
2022-12-11T13:43:54.503Z,55.13
2022-12-11T13:46:26.808Z,56.67
2022-12-11T13:49:00.681Z,53.10
2022-12-11T13:51:28.088Z,57.22
2022-12-11T13:54:16.506Z,58.75
2022-12-11T13:57:00.307Z,54.22
2022-12-11T13:59:28.891Z,57.33
2022-12-11T14:01:56.813Z,54.22
2022-12-11T14:04:23.904Z,67.10
2022-12-11T14:06:50.334Z,68.38
2022-12-11T14:09:22.320Z,85.97
2022-12-11T14:11:53.519Z,62.45
2022-12-11T14:14:34.557Z,58.20
2022-12-11T14:17:00.951Z,54.33
2022-12-11T14:19:27.468Z,57.70
2022-12-11T14:22:01.093Z,55.10
2022-12-11T14:24:27.855Z,54.78
2022-12-11T14:26:54.549Z,47.90
2022-12-11T14:29:25.173Z,56.22
2022-12-11T14:31:51.646Z,58.60
2022-12-11T14:34:21.104Z,57.28
2022-12-11T14:36:47.789Z,55.47
2022-12-11T14:39:16.617Z,51.97
2022-12-11T14:41:48.625Z,61.65
2022-12-11T14:44:16.805Z,56.85
2022-12-11T14:46:43.006Z,66.68
2022-12-11T14:49:17.542Z,59.42
2022-12-11T14:51:44.515Z,60.95
2022-12-11T14:54:20.288Z,62.67
2022-12-11T14:56:47.222Z,56.08
2022-12-11T14:59:26.891Z,54.55
2022-12-11T15:01:59.074Z,55.63
2022-12-11T15:04:30.342Z,49.92
2022-12-11T15:06:57.063Z,55.20
2022-12-11T15:09:26.404Z,55.20
2022-12-11T15:11:53.748Z,51.50
2022-12-11T15:14:21.872Z,56.10
2022-12-11T15:16:49.130Z,56.38
2022-12-11T15:19:18.229Z,59.92
2022-12-11T15:21:44.507Z,63.20
2022-12-11T15:24:22.017Z,65.28
2022-12-11T15:26:48.527Z,51.28
2022-12-11T15:29:35.117Z,59.35
2022-12-11T15:32:18.428Z,51.70
2022-12-11T15:34:52.502Z,55.58
2022-12-11T15:37:18.875Z,53.13
2022-12-11T15:39:45.421Z,57.63
2022-12-11T15:42:14.012Z,65.47
2022-12-11T15:44:41.336Z,73.50
2022-12-11T15:47:14.560Z,59.28
2022-12-11T15:49:41.224Z,68.20
2022-12-11T15:52:07.563Z,60.10
2022-12-11T15:54:33.805Z,62.65
2022-12-11T15:57:01.460Z,56.90
2022-12-11T15:59:27.896Z,56.47
2022-12-11T16:01:54.199Z,62.30
2022-12-11T16:04:20.555Z,58.25
2022-12-11T16:06:46.880Z,59.45
2022-12-11T16:09:13.113Z,59.00
2022-12-11T16:11:39.408Z,61.45
2022-12-11T16:14:05.695Z,61.33
2022-12-11T16:16:31.958Z,71.90
2022-12-11T16:18:58.185Z,65.28
2022-12-11T16:21:24.444Z,65.47
2022-12-11T16:23:50.662Z,71.82
2022-12-11T16:26:17.033Z,63.97
2022-12-11T16:28:43.356Z,58.15
2022-12-11T16:31:10.751Z,66.13
2022-12-11T16:33:37.077Z,64.55
2022-12-11T16:36:11.277Z,66.10
2022-12-11T16:38:37.524Z,63.13
2022-12-11T16:41:03.782Z,94.30
2022-12-11T16:43:30.025Z,92.72
2022-12-11T16:45:56.334Z,80.65
2022-12-11T16:48:22.703Z,72.47
2022-12-11T16:50:48.924Z,67.70
2022-12-11T16:53:15.300Z,65.78
2022-12-11T16:55:42.309Z,69.60
2022-12-11T16:58:08.722Z,74.97
2022-12-11T17:00:34.979Z,72.13
2022-12-11T17:03:01.669Z,72.30
2022-12-11T17:07:54.247Z,65.22
2022-12-11T17:10:20.496Z,66.47
2022-12-11T17:12:46.742Z,66.82
2022-12-11T17:15:13.212Z,75.68
2022-12-11T17:17:39.915Z,84.45
2022-12-11T17:20:06.475Z,79.68
2022-12-11T17:22:32.767Z,75.63
2022-12-11T17:24:59.026Z,75.93
2022-12-11T17:27:25.275Z,78.53
2022-12-11T17:29:51.499Z,72.38
2022-12-11T17:32:18.400Z,79.70
2022-12-11T17:37:10.891Z,68.88
2022-12-11T17:39:37.420Z,72.50
2022-12-11T17:42:03.705Z,65.55
2022-12-11T17:44:31.079Z,75.72
2022-12-11T17:46:58.095Z,66.57
2022-12-11T17:49:24.556Z,63.05
2022-12-11T17:51:52.860Z,68.47
2022-12-11T17:54:19.938Z,72.35
2022-12-11T17:56:46.165Z,65.53
2022-12-11T17:59:12.414Z,64.65
2022-12-11T18:01:38.674Z,64.80
2022-12-11T18:04:05.006Z,62.38
2022-12-11T18:06:31.407Z,62.25
2022-12-11T18:08:57.688Z,61.72
2022-12-11T18:11:23.971Z,61.78
2022-12-11T18:13:51.339Z,65.95
2022-12-11T18:16:19.509Z,64.22
2022-12-11T18:18:46.543Z,62.08
2022-12-11T18:21:16.752Z,61.67
2022-12-11T18:23:43.335Z,63.15
2022-12-11T18:26:10.983Z,67.25
2022-12-11T18:28:37.223Z,71.07
2022-12-11T18:31:03.958Z,63.60
2022-12-11T18:35:56.481Z,78.32
2022-12-11T18:38:22.806Z,75.97
2022-12-11T18:40:49.027Z,70.47
2022-12-11T18:43:15.333Z,64.68
2022-12-11T18:45:42.027Z,73.60
2022-12-11T18:48:08.797Z,119.20
2022-12-11T18:53:01.173Z,62.78
2022-12-11T18:55:27.421Z,58.33
2022-12-11T18:57:53.636Z,65.20
2022-12-11T19:00:20.072Z,69.03
2022-12-11T19:02:46.366Z,66.85
2022-12-11T19:05:12.978Z,66.22
2022-12-11T19:10:05.965Z,61.70
2022-12-11T19:12:32.197Z,63.20
2022-12-11T19:14:58.422Z,63.15
2022-12-11T19:17:24.677Z,60.72
2022-12-11T19:19:50.996Z,73.22
2022-12-11T19:22:17.242Z,92.75
2022-12-11T19:24:43.520Z,73.43
2022-12-11T19:27:13.491Z,77.65
2022-12-11T19:29:40.196Z,84.13
2022-12-11T19:32:06.486Z,96.47
2022-12-11T19:34:32.717Z,67.28
2022-12-11T19:36:58.956Z,73.88
2022-12-11T19:39:25.284Z,94.30
2022-12-11T19:41:51.660Z,84.05
2022-12-11T19:44:18.137Z,81.68
2022-12-11T19:46:44.435Z,87.50
2022-12-11T19:49:11.274Z,130.73
2022-12-11T19:54:05.581Z,84.35
2022-12-11T19:56:32.704Z,69.00
2022-12-11T19:59:00.660Z,67.90
2022-12-11T20:01:30.063Z,65.63
2022-12-11T20:03:57.653Z,68.03
2022-12-11T20:06:24.666Z,75.55
2022-12-11T20:08:50.958Z,65.68
2022-12-11T20:11:18.690Z,72.68
2022-12-11T20:13:46.024Z,69.20
2022-12-11T20:16:12.918Z,67.63
2022-12-11T20:18:39.425Z,74.18
2022-12-11T20:21:07.313Z,61.10
2022-12-11T20:23:34.160Z,72.40
2022-12-11T20:28:26.577Z,72.57
2022-12-11T20:30:52.826Z,72.18
2022-12-11T20:33:19.042Z,69.45
2022-12-11T20:35:45.936Z,71.15
2022-12-11T20:38:12.568Z,62.17
2022-12-11T20:40:38.935Z,81.82
2022-12-11T20:43:05.148Z,71.47
2022-12-11T20:45:31.405Z,69.10
2022-12-11T20:47:57.653Z,69.63
2022-12-11T20:50:23.899Z,79.05
2022-12-11T20:52:50.106Z,78.80
2022-12-11T20:55:16.379Z,66.60
2022-12-11T20:57:45.194Z,65.78
2022-12-11T21:00:12.102Z,65.85
2022-12-11T21:02:38.381Z,72.90
2022-12-11T21:05:04.803Z,68.47
2022-12-11T21:07:31.024Z,65.25
2022-12-11T21:09:57.240Z,65.55
2022-12-11T21:12:26.970Z,66.30
2022-12-11T21:14:57.523Z,69.60
2022-12-11T21:17:23.752Z,69.70
2022-12-11T21:19:51.089Z,70.57
2022-12-11T21:22:17.318Z,68.43
2022-12-11T21:24:43.727Z,74.05
2022-12-11T21:27:10.018Z,81.13
2022-12-11T21:29:36.257Z,63.75
2022-12-11T21:32:02.773Z,66.38
2022-12-11T21:34:29.755Z,68.35
2022-12-11T21:36:57.057Z,65.85
2022-12-11T21:39:24.294Z,63.38
2022-12-11T21:41:50.566Z,66.03
2022-12-11T21:47:03.191Z,62.47
2022-12-11T21:49:29.468Z,63.55
2022-12-11T21:51:55.738Z,64.28
2022-12-11T21:54:21.986Z,63.63
2022-12-11T21:56:48.276Z,64.72
2022-12-11T21:59:14.777Z,63.08
2022-12-11T22:01:42.263Z,67.20
2022-12-11T22:04:09.607Z,69.72
2022-12-11T22:06:35.904Z,58.15
2022-12-11T22:09:02.627Z,62.83
2022-12-11T22:11:31.109Z,64.05
2022-12-11T22:13:57.710Z,63.88
2022-12-11T22:16:24.062Z,72.18
2022-12-11T22:18:50.299Z,64.53
2022-12-11T22:21:16.604Z,64.95
2022-12-11T22:23:42.922Z,70.10
2022-12-11T22:26:11.673Z,61.17
2022-12-11T22:28:37.895Z,64.50
2022-12-11T22:31:04.159Z,67.10
2022-12-11T22:33:30.401Z,69.03
2022-12-11T22:35:57.364Z,63.45
2022-12-11T22:38:23.973Z,63.10
2022-12-11T22:40:50.352Z,63.80
2022-12-11T22:43:16.588Z,70.47
2022-12-11T22:45:42.848Z,63.88
2022-12-11T22:48:09.159Z,63.30
2022-12-11T22:50:36.558Z,59.28
2022-12-11T22:53:03.179Z,68.68
2022-12-11T22:55:29.623Z,61.78
2022-12-11T22:57:55.899Z,59.50
2022-12-11T23:00:22.145Z,63.22
2022-12-11T23:02:48.524Z,63.20
2022-12-11T23:05:15.073Z,63.65
2022-12-11T23:07:41.632Z,67.13
2022-12-11T23:10:08.683Z,67.93
2022-12-11T23:12:35.503Z,60.95
2022-12-11T23:17:27.904Z,57.47
2022-12-11T23:19:54.124Z,56.50
2022-12-11T23:22:20.452Z,58.10
2022-12-11T23:24:46.685Z,57.47
2022-12-11T23:27:12.943Z,55.30
2022-12-11T23:29:39.202Z,56.65
2022-12-11T23:32:05.486Z,55.08
2022-12-11T23:34:31.732Z,54.75
2022-12-11T23:36:57.956Z,57.33
2022-12-11T23:39:24.178Z,48.60
2022-12-11T23:41:50.392Z,52.22
2022-12-11T23:44:16.625Z,50.88
2022-12-11T23:46:44.786Z,50.35
2022-12-11T23:49:11.009Z,43.03
2022-12-11T23:51:37.230Z,45.28
2022-12-11T23:54:03.484Z,42.97
2022-12-11T23:56:29.963Z,45.80
2022-12-11T23:58:56.475Z,43.17
